createdAt,value
2018-08-24T00:00:17.344Z,68.76
2018-08-24T00:05:11.904Z,70.88
2018-08-24T00:10:06.703Z,74.02
2018-08-24T00:15:01.199Z,75.69
2018-08-24T00:19:55.752Z,76.19
2018-08-24T00:24:50.317Z,76.19
2018-08-24T00:29:44.900Z,76.18
2018-08-24T00:34:39.507Z,76.66
2018-08-24T00:39:34.001Z,75.83
2018-08-24T00:44:28.524Z,72.23
2018-08-24T00:49:23.020Z,72.31
2018-08-24T00:54:17.520Z,74.44
2018-08-24T00:59:12.090Z,73.34
2018-08-24T01:04:06.957Z,73.74
2018-08-24T01:09:01.608Z,74.91
2018-08-24T01:13:56.320Z,76.31
2018-08-24T01:18:51.236Z,77.76
2018-08-24T01:23:46.286Z,78.54
2018-08-24T01:28:41.239Z,78.68
2018-08-24T01:33:36.116Z,77.74
2018-08-24T01:38:30.714Z,78.75
2018-08-24T01:43:25.637Z,80.24
2018-08-24T01:48:20.309Z,79.26
2018-08-24T01:53:14.945Z,79.47
2018-08-24T01:58:09.556Z,79.04
2018-08-24T02:03:04.229Z,77.48
2018-08-24T02:07:58.753Z,73.53
2018-08-24T02:12:58.440Z,76.98
2018-08-24T02:17:58.167Z,79.75
2018-08-24T02:22:55.816Z,81.39
2018-08-24T02:27:50.411Z,82.52
2018-08-24T02:32:45.033Z,82.28
2018-08-24T02:37:39.540Z,82.86
2018-08-24T02:42:34.546Z,82.99
2018-08-24T02:47:29.080Z,83.75
2018-08-24T02:52:23.678Z,83.69
2018-08-24T02:57:18.244Z,83.96
2018-08-24T03:02:12.844Z,83.61
2018-08-24T03:07:07.508Z,83.92
2018-08-24T03:12:02.561Z,84.29
2018-08-24T03:17:02.200Z,84.65
2018-08-24T03:21:56.818Z,84.25
2018-08-24T03:26:51.371Z,85.85
2018-08-24T03:31:46.064Z,85.94
2018-08-24T03:36:40.678Z,86.59
2018-08-24T03:41:37.328Z,85.28
2018-08-24T03:46:32.005Z,84.04
2018-08-24T03:51:26.628Z,83.04
2018-08-24T03:56:21.264Z,83.98
2018-08-24T04:01:15.895Z,84.78
2018-08-24T04:06:10.477Z,85.47
2018-08-24T04:11:05.284Z,85.00
2018-08-24T04:15:59.897Z,84.31
2018-08-24T04:20:54.505Z,83.74
2018-08-24T04:25:49.407Z,84.13
2018-08-24T04:30:43.908Z,83.62
2018-08-24T04:35:38.500Z,83.73
2018-08-24T04:40:33.053Z,83.60
2018-08-24T04:45:27.769Z,82.97
2018-08-24T04:50:22.307Z,81.99
2018-08-24T04:55:17.048Z,81.40
2018-08-24T05:00:11.948Z,79.12
2018-08-24T05:05:08.190Z,78.24
2018-08-24T05:10:02.711Z,76.00
2018-08-24T05:14:57.721Z,76.54
2018-08-24T05:19:52.635Z,76.87
2018-08-24T05:24:47.220Z,78.84
2018-08-24T05:29:41.763Z,78.13
2018-08-24T05:34:36.316Z,78.39
2018-08-24T05:39:31.458Z,77.58
2018-08-24T05:44:26.065Z,77.92
2018-08-24T05:49:20.595Z,78.42
2018-08-24T05:54:15.118Z,76.67
2018-08-24T05:59:09.760Z,78.45
2018-08-24T06:04:04.271Z,77.71
2018-08-24T06:09:04.022Z,78.27
2018-08-24T06:13:59.299Z,77.76
2018-08-24T06:18:53.823Z,76.04
2018-08-24T06:23:48.363Z,77.62
2018-08-24T06:28:42.782Z,73.24
2018-08-24T06:33:37.445Z,71.07
2018-08-24T06:38:31.965Z,72.04
2018-08-24T06:43:26.411Z,71.38
2018-08-24T06:48:29.375Z,67.95
2018-08-24T06:53:26.599Z,63.99
2018-08-24T06:58:21.697Z,63.65
2018-08-24T07:03:17.311Z,63.16
2018-08-24T07:08:11.724Z,61.31
2018-08-24T07:13:09.257Z,62.42
2018-08-24T07:18:04.267Z,62.01
2018-08-24T07:22:58.660Z,63.64
2018-08-24T07:27:53.241Z,64.84
2018-08-24T07:32:50.427Z,66.23
2018-08-24T07:37:44.986Z,66.13
2018-08-24T07:42:39.728Z,64.82
2018-08-24T07:47:34.725Z,63.70
2018-08-24T07:52:29.247Z,62.95
2018-08-24T07:57:23.736Z,61.44
2018-08-24T08:02:19.104Z,61.20
2018-08-24T08:07:15.145Z,64.81
2018-08-24T08:12:11.669Z,66.26
2018-08-24T08:17:06.986Z,68.73
2018-08-24T08:22:02.438Z,68.54
2018-08-24T08:27:07.429Z,70.66
2018-08-24T08:32:02.821Z,70.77
2018-08-24T08:36:57.473Z,69.97
2018-08-24T08:41:59.850Z,67.45
2018-08-24T08:46:55.071Z,66.84
2018-08-24T08:51:50.922Z,64.15
2018-08-24T08:56:47.163Z,63.12
2018-08-24T09:01:47.893Z,62.66
2018-08-24T09:06:48.396Z,61.10
2018-08-24T09:11:43.619Z,62.54
2018-08-24T09:16:38.457Z,62.77
2018-08-24T09:21:39.042Z,62.64
2018-08-24T09:26:39.944Z,61.34
2018-08-24T09:31:38.131Z,61.72
2018-08-24T09:36:43.747Z,61.29
2018-08-24T09:41:41.538Z,58.97
2018-08-24T09:46:42.541Z,57.85
2018-08-24T09:51:37.136Z,56.35
2018-08-24T09:56:33.262Z,55.87
2018-08-24T10:01:35.059Z,57.16
2018-08-24T10:06:40.667Z,55.55
2018-08-24T10:11:37.484Z,55.33
2018-08-24T10:16:33.034Z,54.49
2018-08-24T10:21:29.763Z,53.87
2018-08-24T10:26:27.357Z,52.86
2018-08-24T10:31:23.650Z,54.29
2018-08-24T10:36:18.649Z,52.62
2018-08-24T10:41:13.517Z,53.65
2018-08-24T10:46:08.393Z,53.43
2018-08-24T10:51:03.949Z,50.88
2018-08-24T10:55:59.669Z,50.99
2018-08-24T11:00:54.684Z,49.67
2018-08-24T11:05:49.686Z,50.02
2018-08-24T11:10:44.432Z,51.77
2018-08-24T11:15:39.553Z,51.21
2018-08-24T11:20:34.667Z,48.47
2018-08-24T11:25:29.156Z,45.85
2018-08-24T11:30:28.427Z,45.98
2018-08-24T11:35:23.709Z,45.01
2018-08-24T11:40:20.324Z,46.28
2018-08-24T11:45:15.726Z,45.29
2018-08-24T11:50:10.473Z,44.91
2018-08-24T11:55:06.010Z,47.29
2018-08-24T12:00:01.652Z,46.31
2018-08-24T12:04:56.474Z,46.62
2018-08-24T12:09:51.640Z,47.45
2018-08-24T12:14:47.942Z,48.15
2018-08-24T12:19:43.512Z,45.65
2018-08-24T12:24:38.486Z,44.19
2018-08-24T12:29:33.197Z,45.82
2018-08-24T12:34:27.825Z,46.51
2018-08-24T12:39:22.867Z,45.84
2018-08-24T12:44:17.413Z,46.97
2018-08-24T12:49:12.250Z,47.02
2018-08-24T12:54:07.973Z,46.15
2018-08-24T12:59:02.552Z,46.92
2018-08-24T13:03:57.585Z,46.50
2018-08-24T13:08:53.139Z,47.38
2018-08-24T13:13:47.690Z,47.83
2018-08-24T13:18:53.004Z,47.55
2018-08-24T13:23:47.803Z,44.65
2018-08-24T13:28:44.052Z,45.01
2018-08-24T13:33:38.685Z,44.18
2018-08-24T13:38:33.578Z,43.11
2018-08-24T13:43:28.146Z,43.36
2018-08-24T13:48:24.139Z,43.44
2018-08-24T13:53:21.769Z,43.12
2018-08-24T13:58:21.103Z,41.59
2018-08-24T14:03:17.090Z,41.21
2018-08-24T14:08:12.176Z,41.18
2018-08-24T14:13:07.001Z,40.77
2018-08-24T14:18:02.277Z,40.39
2018-08-24T14:22:57.063Z,41.45
2018-08-24T14:27:52.940Z,42.65
2018-08-24T14:32:47.623Z,41.31
2018-08-24T14:37:42.925Z,40.21
2018-08-24T14:42:38.309Z,39.91
2018-08-24T14:47:32.881Z,40.53
2018-08-24T14:52:27.373Z,41.66
2018-08-24T14:57:23.014Z,42.31
2018-08-24T15:02:31.977Z,43.24
2018-08-24T15:07:26.712Z,46.87
2018-08-24T15:12:21.237Z,50.18
2018-08-24T15:17:15.779Z,53.03
2018-08-24T15:22:10.377Z,52.59
2018-08-24T15:27:05.025Z,53.79
2018-08-24T15:31:59.611Z,53.71
2018-08-24T15:36:54.263Z,55.08
2018-08-24T15:41:48.762Z,55.22
2018-08-24T15:46:43.302Z,56.55
2018-08-24T15:51:38.397Z,55.29
2018-08-24T15:56:32.930Z,55.68
2018-08-24T16:01:27.469Z,56.16
2018-08-24T16:06:21.977Z,57.43
2018-08-24T16:11:16.468Z,58.57
2018-08-24T16:16:10.981Z,58.92
2018-08-24T16:21:05.577Z,59.08
2018-08-24T16:26:00.177Z,60.64
2018-08-24T16:30:54.680Z,60.94
2018-08-24T16:35:49.217Z,60.53
2018-08-24T16:40:43.717Z,60.79
2018-08-24T16:45:38.236Z,61.09
2018-08-24T16:50:32.757Z,60.33
2018-08-24T16:55:27.269Z,61.25
2018-08-24T17:00:22.026Z,61.35
2018-08-24T17:05:16.624Z,60.65
2018-08-24T17:10:11.116Z,60.50
2018-08-24T17:15:05.888Z,60.18
2018-08-24T17:20:00.425Z,60.46
2018-08-24T17:24:54.983Z,60.19
2018-08-24T17:29:49.489Z,59.76
2018-08-24T17:34:44.134Z,60.52
2018-08-24T17:39:38.754Z,60.79
2018-08-24T17:44:33.221Z,60.02
2018-08-24T17:49:27.733Z,59.88
2018-08-24T17:54:22.350Z,59.79
2018-08-24T17:59:16.887Z,60.38
2018-08-24T18:04:11.402Z,60.22
2018-08-24T18:09:10.156Z,60.51
2018-08-24T18:14:04.677Z,60.65
2018-08-24T18:18:59.184Z,60.08
2018-08-24T18:23:53.740Z,59.56
2018-08-24T18:28:48.240Z,59.46
2018-08-24T18:33:42.773Z,59.24
2018-08-24T18:38:37.277Z,59.95
2018-08-24T18:43:31.810Z,60.05
2018-08-24T18:48:26.326Z,59.82
2018-08-24T18:53:20.873Z,59.08
2018-08-24T18:58:15.369Z,60.01
2018-08-24T19:03:09.958Z,59.77
2018-08-24T19:08:09.394Z,59.15
2018-08-24T19:13:03.928Z,59.55
2018-08-24T19:18:03.558Z,59.21
2018-08-24T19:22:58.187Z,60.58
2018-08-24T19:27:57.817Z,60.63
2018-08-24T19:32:52.492Z,60.56
2018-08-24T19:37:46.973Z,59.67
2018-08-24T19:42:41.600Z,60.05
2018-08-24T19:47:41.321Z,60.03
2018-08-24T19:52:35.869Z,60.14
2018-08-24T19:59:43.357Z,59.80
2018-08-24T20:04:37.896Z,59.84
2018-08-24T20:09:37.653Z,57.79
2018-08-24T20:14:37.287Z,58.70
2018-08-24T20:19:32.042Z,58.84
2018-08-24T20:24:26.961Z,59.25
2018-08-24T20:29:21.548Z,58.92
2018-08-24T20:34:16.493Z,58.96
2018-08-24T20:39:11.841Z,59.08
2018-08-24T20:44:06.605Z,58.64
2018-08-24T20:49:01.661Z,59.28
2018-08-24T20:53:56.338Z,58.46
2018-08-24T20:58:50.932Z,58.47
2018-08-24T21:03:45.618Z,58.80
2018-08-24T21:08:40.303Z,59.69
2018-08-24T21:13:34.835Z,59.47
2018-08-24T21:18:29.348Z,59.55
2018-08-24T21:23:24.085Z,59.29
2018-08-24T21:28:18.564Z,59.50
2018-08-24T21:33:13.105Z,59.25
2018-08-24T21:38:07.585Z,59.52
2018-08-24T21:43:02.109Z,59.29
2018-08-24T21:47:56.617Z,59.07
2018-08-24T21:52:51.127Z,59.37
2018-08-24T21:57:45.651Z,59.20
2018-08-24T22:02:40.193Z,60.44
2018-08-24T22:07:34.689Z,61.48
2018-08-24T22:12:29.213Z,61.52
2018-08-24T22:17:23.771Z,62.06
2018-08-24T22:22:18.308Z,60.71
2018-08-24T22:27:12.821Z,60.55
2018-08-24T22:32:07.345Z,60.44
2018-08-24T22:37:01.824Z,60.78
2018-08-24T22:41:56.353Z,61.24
2018-08-24T22:46:50.873Z,61.57
2018-08-24T22:51:45.400Z,61.40
2018-08-24T22:56:39.983Z,62.06
2018-08-24T23:01:34.508Z,62.80
2018-08-24T23:06:29.004Z,63.30
2018-08-24T23:11:23.593Z,64.13
2018-08-24T23:16:18.122Z,65.38
2018-08-24T23:21:12.613Z,65.75
2018-08-24T23:26:07.184Z,66.70
2018-08-24T23:31:01.784Z,66.67
2018-08-24T23:35:56.321Z,66.33
2018-08-24T23:40:50.853Z,66.41
2018-08-24T23:45:45.371Z,66.65
2018-08-24T23:50:39.881Z,67.45
2018-08-24T23:55:34.644Z,66.64
